Terminal Aerodrome Forecast
Issued by NWS

Home | Current Version | Previous Version | Text Only | Print | Product List | Glossary On
Versions: 1 2 3 4 5 6 7 8 9 10 11 12 13 14 15 16 17 18
229
FTUS45 KTFX 211120
TAFLWT
TAF
KLWT 211120Z 2112/2212 VRB06KT P6SM BKN008 OVC030
      TEMPO 2112/2116 BKN004 OVC010
     FM211600 VRB06KT P6SM SCT070 BKN150
     FM220600 22015G22KT P6SM SCT050 BKN100=

USA.gov is the U.S. government's official web portal to all federal, state and local government web resources and services.